createdAt,value
2022-10-01T00:00:14.647Z,13.33
2022-10-01T00:02:41.838Z,12.70
2022-10-01T00:05:11.410Z,15.30
2022-10-01T00:07:39.415Z,15.50
2022-10-01T00:10:06.863Z,14.40
2022-10-01T00:12:34.227Z,16.47
2022-10-01T00:15:05.974Z,12.93
2022-10-01T00:17:34.445Z,14.00
2022-10-01T00:20:02.490Z,14.90
2022-10-01T00:22:32.346Z,14.37
2022-10-01T00:24:59.853Z,13.40
2022-10-01T00:27:27.750Z,12.70
2022-10-01T00:29:55.039Z,14.37
2022-10-01T00:32:22.637Z,13.07
2022-10-01T00:34:49.755Z,13.27
2022-10-01T00:37:18.107Z,14.23
2022-10-01T00:39:45.226Z,15.30
2022-10-01T00:42:18.122Z,14.13
2022-10-01T00:44:45.281Z,14.40
2022-10-01T00:47:29.179Z,14.77
2022-10-01T00:50:19.506Z,14.60
2022-10-01T00:52:48.589Z,14.60
2022-10-01T00:55:27.263Z,14.80
2022-10-01T00:57:55.160Z,14.83
2022-10-01T01:00:22.400Z,14.03
2022-10-01T01:02:50.678Z,14.67
2022-10-01T01:05:17.949Z,15.60
2022-10-01T01:07:49.167Z,15.43
2022-10-01T01:10:17.965Z,15.53
2022-10-01T01:12:48.335Z,15.93
2022-10-01T01:15:27.890Z,15.37
2022-10-01T01:18:10.822Z,15.73
2022-10-01T01:21:10.498Z,16.57
2022-10-01T01:23:56.102Z,16.80
2022-10-01T01:26:42.282Z,16.07
2022-10-01T01:29:14.769Z,16.37
2022-10-01T01:31:46.412Z,15.90
2022-10-01T01:34:15.681Z,16.43
2022-10-01T01:36:45.321Z,15.80
2022-10-01T01:39:14.342Z,16.37
2022-10-01T01:41:50.034Z,15.97
2022-10-01T01:44:19.112Z,16.03
2022-10-01T01:46:49.353Z,15.57
2022-10-01T01:49:17.725Z,16.13
2022-10-01T01:51:51.733Z,16.17
2022-10-01T01:54:19.543Z,16.10
2022-10-01T01:56:48.135Z,16.73
2022-10-01T01:59:16.315Z,18.03
2022-10-01T02:01:44.539Z,16.87
2022-10-01T02:04:13.072Z,17.60
2022-10-01T02:06:42.728Z,17.00
2022-10-01T02:09:15.139Z,17.60
2022-10-01T02:11:48.476Z,18.80
2022-10-01T02:14:28.615Z,19.13
2022-10-01T02:17:02.008Z,17.70
2022-10-01T02:19:34.584Z,16.43
2022-10-01T02:22:03.202Z,15.97
2022-10-01T02:24:48.607Z,16.37
2022-10-01T02:27:21.174Z,15.93
2022-10-01T02:29:50.341Z,17.77
2022-10-01T02:32:19.190Z,18.33
2022-10-01T02:34:48.219Z,17.37
2022-10-01T02:37:15.778Z,17.17
2022-10-01T02:39:43.358Z,17.33
2022-10-01T02:42:13.207Z,17.00
2022-10-01T02:44:42.540Z,17.13
2022-10-01T02:47:15.549Z,17.03
2022-10-01T02:49:42.669Z,16.67
2022-10-01T02:52:14.815Z,16.07
2022-10-01T02:54:47.995Z,15.63
2022-10-01T02:57:24.736Z,14.70
2022-10-01T02:59:52.276Z,14.13
2022-10-01T03:02:20.639Z,13.17
2022-10-01T03:04:48.545Z,12.07
2022-10-01T03:07:16.768Z,11.73
2022-10-01T03:09:43.865Z,11.90
2022-10-01T03:12:11.078Z,10.90
2022-10-01T03:14:41.859Z,10.60
2022-10-01T03:17:08.980Z,10.20
2022-10-01T03:19:36.061Z,8.87
2022-10-01T03:22:03.206Z,9.00
2022-10-01T03:24:30.426Z,9.17
2022-10-01T03:26:58.096Z,8.77
2022-10-01T03:29:25.669Z,8.10
2022-10-01T03:31:53.229Z,8.17
2022-10-01T03:34:20.653Z,8.57
2022-10-01T03:36:48.451Z,8.23
2022-10-01T03:39:15.672Z,8.10
2022-10-01T03:41:42.749Z,8.00
2022-10-01T03:44:09.859Z,7.80
2022-10-01T03:46:37.184Z,7.90
2022-10-01T03:49:04.356Z,8.17
2022-10-01T03:51:32.353Z,8.57
2022-10-01T03:53:59.962Z,7.57
2022-10-01T03:56:27.138Z,7.67
2022-10-01T03:58:54.496Z,7.10
2022-10-01T04:01:21.682Z,7.23
2022-10-01T04:03:50.339Z,7.07
2022-10-01T04:06:17.483Z,6.83
2022-10-01T04:08:44.814Z,7.23
2022-10-01T04:11:12.020Z,7.53
2022-10-01T04:13:39.100Z,7.00
2022-10-01T04:16:06.923Z,6.97
2022-10-01T04:18:34.360Z,7.47
2022-10-01T04:21:01.412Z,7.00
2022-10-01T04:23:28.573Z,6.93
2022-10-01T04:25:55.723Z,6.20
2022-10-01T04:28:22.864Z,6.50
2022-10-01T04:31:10.001Z,6.37
2022-10-01T04:33:37.210Z,6.20
2022-10-01T04:36:04.281Z,6.77
2022-10-01T04:38:31.372Z,6.27
2022-10-01T04:40:58.417Z,5.80
2022-10-01T04:43:25.543Z,5.73
2022-10-01T04:45:52.667Z,5.83
2022-10-01T04:48:19.806Z,5.80
2022-10-01T04:50:46.922Z,5.30
2022-10-01T04:53:14.017Z,5.33
2022-10-01T04:55:41.069Z,5.13
2022-10-01T04:58:08.106Z,5.27
2022-10-01T05:00:35.270Z,5.10
2022-10-01T05:03:02.393Z,5.13
2022-10-01T05:05:32.884Z,4.50
2022-10-01T05:07:59.966Z,4.73
2022-10-01T05:10:27.574Z,4.33
2022-10-01T05:12:54.734Z,4.13
2022-10-01T05:15:21.880Z,4.47
2022-10-01T05:17:48.979Z,4.17
2022-10-01T05:20:21.345Z,3.93
2022-10-01T05:22:49.493Z,3.73
2022-10-01T05:25:17.385Z,3.50
2022-10-01T05:27:44.553Z,3.70
2022-10-01T05:30:12.493Z,3.20
2022-10-01T05:32:39.736Z,3.60
2022-10-01T05:35:08.197Z,3.20
2022-10-01T05:37:35.581Z,3.30
2022-10-01T05:40:03.024Z,3.03
2022-10-01T05:42:30.082Z,2.83
2022-10-01T05:44:57.175Z,2.87
2022-10-01T05:47:24.279Z,2.80
2022-10-01T05:49:51.367Z,2.50
2022-10-01T05:52:18.463Z,2.60
2022-10-01T05:54:45.536Z,3.00
2022-10-01T05:57:13.036Z,3.10
2022-10-01T05:59:40.293Z,2.67
2022-10-01T06:02:09.566Z,3.10
2022-10-01T06:04:40.929Z,2.80
2022-10-01T06:07:08.798Z,2.90
2022-10-01T06:09:35.908Z,3.10
2022-10-01T06:12:03.037Z,2.93
2022-10-01T06:14:30.116Z,3.23
2022-10-01T06:16:57.253Z,2.70
2022-10-01T06:19:24.387Z,2.90
2022-10-01T06:21:52.222Z,3.17
2022-10-01T06:24:19.407Z,2.90
2022-10-01T06:26:48.468Z,2.70
2022-10-01T06:29:15.547Z,2.70
2022-10-01T06:31:42.964Z,3.00
2022-10-01T06:34:10.034Z,3.00
2022-10-01T06:36:37.093Z,2.97
2022-10-01T06:39:04.166Z,2.63
2022-10-01T06:41:31.474Z,2.80
2022-10-01T06:43:58.719Z,2.70
2022-10-01T06:46:25.894Z,2.70
2022-10-01T06:48:52.979Z,3.10
2022-10-01T06:51:40.028Z,2.90
2022-10-01T06:54:07.213Z,3.13
2022-10-01T06:56:35.688Z,2.90
2022-10-01T06:59:03.284Z,3.00
2022-10-01T07:01:32.702Z,3.47
2022-10-01T07:04:00.218Z,3.03
2022-10-01T07:06:27.281Z,3.13
2022-10-01T07:08:54.372Z,3.10
2022-10-01T07:11:21.476Z,3.20
2022-10-01T07:13:53.654Z,3.30
2022-10-01T07:16:21.568Z,3.40
2022-10-01T07:18:48.660Z,3.03
2022-10-01T07:21:15.702Z,3.47
2022-10-01T07:23:43.254Z,3.13
2022-10-01T07:26:10.824Z,3.13
2022-10-01T07:28:38.031Z,3.20
2022-10-01T07:31:12.691Z,3.23
2022-10-01T07:33:40.049Z,3.27
2022-10-01T07:36:08.437Z,3.47
2022-10-01T07:38:35.789Z,3.50
2022-10-01T07:41:03.475Z,3.40
2022-10-01T07:43:31.089Z,3.83
2022-10-01T07:46:00.073Z,3.50
2022-10-01T07:48:28.014Z,3.37
2022-10-01T07:50:55.129Z,3.70
2022-10-01T07:53:24.339Z,3.37
2022-10-01T07:55:52.041Z,3.20
2022-10-01T07:58:21.888Z,3.37
2022-10-01T08:00:48.962Z,3.40
2022-10-01T08:03:16.091Z,3.50
2022-10-01T08:05:43.606Z,3.50
2022-10-01T08:08:10.771Z,3.43
2022-10-01T08:10:38.629Z,3.50
2022-10-01T08:13:08.677Z,3.20
2022-10-01T08:15:36.403Z,3.87
2022-10-01T08:18:04.516Z,3.40
2022-10-01T08:20:32.026Z,3.83
2022-10-01T08:23:03.024Z,3.70
2022-10-01T08:25:30.132Z,3.20
2022-10-01T08:27:57.501Z,3.53
2022-10-01T08:30:25.452Z,3.40
2022-10-01T08:32:59.363Z,3.13
2022-10-01T08:35:27.008Z,3.10
2022-10-01T08:37:56.660Z,3.37
2022-10-01T08:40:24.691Z,3.10
2022-10-01T08:42:59.922Z,3.30
2022-10-01T08:45:29.702Z,3.47
2022-10-01T08:48:01.439Z,3.13
2022-10-01T08:50:47.487Z,3.17
2022-10-01T08:53:17.276Z,2.80
2022-10-01T08:55:44.944Z,2.70
2022-10-01T08:58:15.410Z,3.07
2022-10-01T09:00:45.222Z,2.90
2022-10-01T09:03:13.959Z,2.80
2022-10-01T09:05:48.272Z,2.37
2022-10-01T09:08:23.193Z,2.50
2022-10-01T09:10:58.931Z,2.83
2022-10-01T09:13:26.011Z,2.97
2022-10-01T09:16:11.644Z,2.67
2022-10-01T09:19:17.310Z,2.30
2022-10-01T09:21:44.389Z,2.30
2022-10-01T09:24:21.622Z,3.37
2022-10-01T09:26:49.208Z,2.50
2022-10-01T09:29:26.008Z,2.57
2022-10-01T09:31:54.479Z,2.37
2022-10-01T09:34:34.722Z,2.00
2022-10-01T09:37:06.412Z,2.10
2022-10-01T09:39:43.460Z,2.30
2022-10-01T09:42:10.633Z,2.00
2022-10-01T09:44:37.795Z,2.00
2022-10-01T09:47:14.529Z,1.97
2022-10-01T09:49:46.078Z,2.37
2022-10-01T09:52:16.196Z,2.17
2022-10-01T09:54:53.114Z,2.30
2022-10-01T09:57:25.597Z,2.40
2022-10-01T09:59:57.904Z,2.07
2022-10-01T10:02:32.147Z,2.00
2022-10-01T10:05:06.688Z,2.37
2022-10-01T10:07:35.131Z,2.40
2022-10-01T10:10:09.798Z,1.80
2022-10-01T10:12:37.008Z,1.77
2022-10-01T10:15:08.863Z,1.80
2022-10-01T10:17:37.910Z,2.07
2022-10-01T10:20:10.961Z,2.07
2022-10-01T10:22:38.548Z,2.23
2022-10-01T10:25:13.093Z,1.80
2022-10-01T10:27:51.388Z,1.90
2022-10-01T10:30:18.649Z,1.60
2022-10-01T10:32:48.822Z,2.00
2022-10-01T10:35:17.828Z,1.73
2022-10-01T10:37:50.360Z,1.57
2022-10-01T10:40:20.066Z,1.50
2022-10-01T10:42:56.994Z,1.43
2022-10-01T10:45:43.938Z,1.70
2022-10-01T10:48:16.559Z,1.60
2022-10-01T10:50:45.232Z,1.47
2022-10-01T10:53:22.388Z,1.80
2022-10-01T10:56:02.937Z,1.77
2022-10-01T10:58:34.208Z,1.60
2022-10-01T11:01:02.736Z,1.67
2022-10-01T11:03:33.036Z,1.67
2022-10-01T11:06:04.380Z,1.70
2022-10-01T11:08:32.149Z,1.90
2022-10-01T11:11:14.166Z,1.60
2022-10-01T11:13:41.212Z,1.70
2022-10-01T11:16:27.115Z,1.60
2022-10-01T11:19:09.319Z,1.60
2022-10-01T11:21:42.351Z,1.30
2022-10-01T11:24:33.203Z,1.40
2022-10-01T11:27:18.688Z,1.60
2022-10-01T11:29:48.758Z,1.30
2022-10-01T11:32:20.772Z,1.47
2022-10-01T11:34:53.530Z,1.20
2022-10-01T11:37:20.622Z,1.20
2022-10-01T11:39:49.324Z,1.40
2022-10-01T11:42:18.667Z,1.43
2022-10-01T11:44:45.709Z,1.30
2022-10-01T11:47:23.238Z,1.30
2022-10-01T11:50:05.740Z,1.10
2022-10-01T11:52:44.700Z,1.10
2022-10-01T11:55:39.851Z,1.10
2022-10-01T11:58:44.445Z,1.20
2022-10-01T12:01:14.379Z,1.10
2022-10-01T12:03:50.760Z,1.07
2022-10-01T12:06:23.150Z,0.90
2022-10-01T12:08:58.173Z,1.00
2022-10-01T12:11:29.235Z,1.20
2022-10-01T12:14:00.617Z,1.00
2022-10-01T12:16:34.067Z,1.30
2022-10-01T12:19:10.986Z,1.10
2022-10-01T12:21:40.361Z,1.50
2022-10-01T12:24:15.096Z,1.13
2022-10-01T12:26:45.215Z,2.00
2022-10-01T12:29:30.982Z,1.60
2022-10-01T12:32:30.636Z,1.30
2022-10-01T12:35:05.486Z,1.00
2022-10-01T12:37:51.414Z,1.20
2022-10-01T12:40:21.920Z,2.40
2022-10-01T12:42:55.118Z,1.00
2022-10-01T12:45:43.765Z,1.23
2022-10-01T12:48:16.357Z,1.40
2022-10-01T12:50:54.948Z,1.33
2022-10-01T12:53:25.148Z,2.10
2022-10-01T12:56:09.003Z,1.40
2022-10-01T12:58:39.228Z,7.00
2022-10-01T13:01:20.001Z,1.33
2022-10-01T13:04:07.394Z,1.10
2022-10-01T13:06:53.150Z,1.10
2022-10-01T13:09:46.563Z,1.00
2022-10-01T13:12:22.743Z,1.03
2022-10-01T13:14:52.715Z,1.00
2022-10-01T13:17:35.161Z,1.10
2022-10-01T13:20:07.470Z,1.20
2022-10-01T13:22:43.492Z,1.20
2022-10-01T13:25:10.533Z,1.20
2022-10-01T13:27:47.395Z,1.40
2022-10-01T13:30:18.357Z,1.10
2022-10-01T13:32:51.289Z,1.10
2022-10-01T13:35:24.391Z,1.00
2022-10-01T13:37:51.731Z,1.00
2022-10-01T13:40:32.492Z,1.00
2022-10-01T13:43:29.049Z,1.33
2022-10-01T13:45:56.845Z,1.60
2022-10-01T13:48:25.674Z,1.30
2022-10-01T13:51:10.629Z,1.40
2022-10-01T13:53:39.566Z,1.57
2022-10-01T13:56:06.954Z,2.80
2022-10-01T13:58:34.033Z,1.90
2022-10-01T14:01:02.731Z,1.87
2022-10-01T14:03:38.753Z,2.40
2022-10-01T14:06:07.850Z,1.20
2022-10-01T14:08:47.159Z,1.00
2022-10-01T14:11:37.369Z,1.10
2022-10-01T14:14:30.991Z,1.40
2022-10-01T14:16:59.109Z,1.23
2022-10-01T14:19:28.083Z,1.37
2022-10-01T14:21:55.148Z,1.00
2022-10-01T14:24:28.053Z,1.20
2022-10-01T14:27:18.404Z,1.10
2022-10-01T14:29:51.769Z,1.50
2022-10-01T14:32:22.977Z,1.20
2022-10-01T14:34:50.071Z,1.00
2022-10-01T14:37:18.945Z,2.10
2022-10-01T14:39:46.397Z,1.67
2022-10-01T14:42:17.612Z,1.50
2022-10-01T14:44:46.045Z,0.93
2022-10-01T14:47:13.147Z,1.03
2022-10-01T14:49:40.288Z,1.00
2022-10-01T14:52:14.173Z,1.50
2022-10-01T14:54:46.512Z,1.30
2022-10-01T14:57:17.648Z,1.70
2022-10-01T14:59:47.690Z,0.90
2022-10-01T15:02:19.663Z,1.40
2022-10-01T15:04:51.196Z,0.90
2022-10-01T15:07:18.868Z,1.07
2022-10-01T15:09:46.707Z,1.10
2022-10-01T15:12:15.252Z,1.00
2022-10-01T15:14:42.901Z,0.90
2022-10-01T15:17:16.600Z,0.80
2022-10-01T15:19:45.235Z,1.00
2022-10-01T15:22:13.039Z,1.10
2022-10-01T15:24:47.338Z,1.07
2022-10-01T15:27:15.300Z,1.20
2022-10-01T15:29:43.264Z,1.03
2022-10-01T15:32:12.681Z,1.10
2022-10-01T15:34:40.037Z,1.20
2022-10-01T15:37:07.297Z,1.20
2022-10-01T15:39:38.972Z,1.13
2022-10-01T15:42:32.766Z,1.27
2022-10-01T15:45:08.731Z,1.40
2022-10-01T15:47:39.641Z,1.10
2022-10-01T15:50:06.815Z,1.00
2022-10-01T15:52:51.755Z,1.00
2022-10-01T15:55:23.754Z,1.07
2022-10-01T15:57:52.790Z,1.03
2022-10-01T16:00:27.567Z,1.00
2022-10-01T16:02:55.233Z,1.10
2022-10-01T16:05:23.667Z,1.10
2022-10-01T16:07:54.488Z,1.20
2022-10-01T16:10:54.140Z,1.13
2022-10-01T16:13:30.291Z,1.17
2022-10-01T16:16:19.876Z,1.10
2022-10-01T16:19:00.735Z,1.30
2022-10-01T16:21:27.853Z,1.30
2022-10-01T16:23:56.043Z,1.20
2022-10-01T16:26:26.149Z,1.60
2022-10-01T16:29:16.305Z,1.20
2022-10-01T16:31:44.857Z,1.17
2022-10-01T16:34:16.049Z,1.30
2022-10-01T16:36:43.990Z,1.20
2022-10-01T16:39:15.442Z,1.13
2022-10-01T16:41:43.554Z,1.20
2022-10-01T16:44:12.989Z,1.30
2022-10-01T16:46:40.449Z,1.10
2022-10-01T16:49:12.096Z,1.10
2022-10-01T16:51:40.228Z,0.90
2022-10-01T16:54:13.516Z,1.20
2022-10-01T16:56:41.263Z,1.00
2022-10-01T16:59:08.386Z,0.97
2022-10-01T17:01:35.449Z,1.10
2022-10-01T17:04:02.547Z,1.57
2022-10-01T17:06:29.623Z,0.90
2022-10-01T17:08:56.835Z,1.70
2022-10-01T17:11:28.256Z,1.20
2022-10-01T17:13:55.364Z,2.00
2022-10-01T17:16:24.621Z,3.77
2022-10-01T17:18:51.949Z,1.90
2022-10-01T17:21:19.071Z,7.37
2022-10-01T17:23:49.946Z,2.27
2022-10-01T17:26:19.733Z,1.80
2022-10-01T17:28:47.066Z,1.10
2022-10-01T17:31:18.057Z,1.30
2022-10-01T17:33:45.849Z,1.10
2022-10-01T17:36:13.916Z,1.37
2022-10-01T17:38:41.089Z,1.30
2022-10-01T17:41:08.130Z,4.63
2022-10-01T17:43:36.821Z,2.80
2022-10-01T17:46:04.044Z,1.50
2022-10-01T17:48:31.219Z,11.33
2022-10-01T17:51:09.122Z,3.97
2022-10-01T17:53:42.165Z,9.53
2022-10-01T17:56:19.310Z,10.17
2022-10-01T17:58:46.493Z,2.33
2022-10-01T18:01:19.457Z,5.50
2022-10-01T18:03:46.631Z,6.17
2022-10-01T18:06:15.957Z,2.17
2022-10-01T18:08:58.430Z,3.30
2022-10-01T18:11:26.780Z,1.30
2022-10-01T18:13:53.932Z,3.13
2022-10-01T18:16:21.143Z,2.10
2022-10-01T18:21:36.471Z,3.13
2022-10-01T18:24:04.925Z,1.40
2022-10-01T18:26:32.658Z,1.47
2022-10-01T18:28:59.940Z,2.20
2022-10-01T18:31:28.168Z,1.00
2022-10-01T18:33:57.838Z,1.57
2022-10-01T18:36:36.079Z,1.00
2022-10-01T18:39:11.203Z,1.00
2022-10-01T18:41:39.205Z,1.20
2022-10-01T18:44:24.642Z,1.10
2022-10-01T18:46:51.697Z,1.00
2022-10-01T18:49:36.142Z,1.13
2022-10-01T18:52:19.368Z,0.90
2022-10-01T18:55:05.515Z,1.13
2022-10-01T18:57:41.861Z,1.40
2022-10-01T19:00:31.696Z,1.57
2022-10-01T19:03:17.363Z,1.07
2022-10-01T19:05:47.664Z,1.23
2022-10-01T19:08:14.753Z,1.30
2022-10-01T19:10:50.267Z,0.90
2022-10-01T19:13:20.488Z,1.10
2022-10-01T19:15:47.558Z,1.07
2022-10-01T19:18:33.487Z,1.10
2022-10-01T19:21:06.289Z,0.93
2022-10-01T19:23:45.436Z,1.20
2022-10-01T19:26:28.546Z,1.40
2022-10-01T19:29:03.764Z,1.70
2022-10-01T19:31:33.666Z,1.30
2022-10-01T19:34:13.410Z,1.20
2022-10-01T19:36:44.870Z,1.53
2022-10-01T19:39:16.707Z,1.23
2022-10-01T19:41:48.790Z,1.60
2022-10-01T19:44:28.629Z,1.60
2022-10-01T19:46:58.560Z,1.67
2022-10-01T19:49:44.828Z,1.70
2022-10-01T19:52:18.309Z,2.10
2022-10-01T19:55:03.608Z,1.90
2022-10-01T19:57:38.974Z,1.80
2022-10-01T20:00:10.184Z,1.87
2022-10-01T20:02:45.169Z,1.80
2022-10-01T20:05:15.610Z,1.70
2022-10-01T20:08:06.540Z,1.40
2022-10-01T20:10:38.620Z,1.63
2022-10-01T20:13:08.744Z,1.73
2022-10-01T20:15:43.165Z,2.13
2022-10-01T20:18:13.379Z,1.60
2022-10-01T20:20:40.483Z,1.67
2022-10-01T20:23:26.304Z,1.80
2022-10-01T20:26:04.801Z,2.00
2022-10-01T20:28:40.603Z,1.70
2022-10-01T20:31:19.877Z,1.93
2022-10-01T20:33:56.110Z,1.93
2022-10-01T20:36:26.072Z,1.90
2022-10-01T20:39:04.349Z,1.90
2022-10-01T20:41:34.693Z,2.83
2022-10-01T20:44:05.701Z,2.97
2022-10-01T20:46:38.215Z,3.83
2022-10-01T20:49:07.532Z,3.20
2022-10-01T20:51:46.080Z,2.73
2022-10-01T20:54:15.929Z,3.20
2022-10-01T20:56:46.316Z,3.13
2022-10-01T20:59:25.933Z,3.87
2022-10-01T21:02:01.146Z,3.00
2022-10-01T21:04:31.885Z,2.90
2022-10-01T21:07:02.198Z,3.50
2022-10-01T21:09:33.358Z,3.03
2022-10-01T21:12:11.074Z,3.37
2022-10-01T21:14:54.338Z,3.07
2022-10-01T21:17:21.479Z,3.20
2022-10-01T21:19:48.601Z,3.10
2022-10-01T21:22:24.777Z,2.93
2022-10-01T21:24:57.560Z,3.03
2022-10-01T21:27:27.679Z,2.90
2022-10-01T21:30:13.324Z,2.80
2022-10-01T21:32:50.433Z,2.70
2022-10-01T21:35:26.475Z,2.90
2022-10-01T21:38:08.745Z,2.97
2022-10-01T21:40:59.296Z,2.73
2022-10-01T21:43:29.154Z,3.27
2022-10-01T21:46:06.823Z,3.07
2022-10-01T21:48:36.745Z,3.27
2022-10-01T21:51:11.205Z,3.83
2022-10-01T21:53:38.279Z,3.67
2022-10-01T21:56:09.120Z,3.67
2022-10-01T21:58:48.852Z,3.30
2022-10-01T22:01:26.097Z,4.57
2022-10-01T22:04:03.793Z,6.00
2022-10-01T22:06:36.184Z,4.07
2022-10-01T22:09:03.542Z,2.90
2022-10-01T22:11:34.552Z,3.10
2022-10-01T22:14:11.990Z,3.23
2022-10-01T22:16:41.400Z,3.17
2022-10-01T22:19:13.597Z,3.20
2022-10-01T22:21:45.053Z,2.30
2022-10-01T22:24:16.816Z,2.90
2022-10-01T22:26:46.439Z,2.50
2022-10-01T22:29:17.175Z,2.70
2022-10-01T22:31:46.200Z,2.73
2022-10-01T22:34:15.573Z,2.70
2022-10-01T22:36:45.789Z,2.07
2022-10-01T22:39:23.908Z,2.27
2022-10-01T22:41:53.590Z,2.27
2022-10-01T22:44:21.822Z,2.30
2022-10-01T22:46:59.086Z,2.37
2022-10-01T22:49:33.000Z,2.93
2022-10-01T22:52:09.238Z,2.50
2022-10-01T22:54:49.276Z,2.37
2022-10-01T22:57:22.470Z,2.30
2022-10-01T22:59:59.913Z,2.40
2022-10-01T23:02:35.573Z,2.37
2022-10-01T23:05:03.146Z,2.50
2022-10-01T23:07:30.250Z,2.20
2022-10-01T23:10:00.208Z,2.50
2022-10-01T23:12:30.078Z,2.27
2022-10-01T23:15:01.505Z,2.30
2022-10-01T23:17:28.761Z,2.57
2022-10-01T23:19:55.879Z,2.40
2022-10-01T23:22:41.723Z,2.40
2022-10-01T23:25:08.812Z,2.23
2022-10-01T23:27:50.954Z,2.40
2022-10-01T23:30:19.481Z,2.43
2022-10-01T23:32:49.537Z,2.60
2022-10-01T23:35:20.519Z,2.50
2022-10-01T23:38:03.284Z,2.60
2022-10-01T23:40:35.242Z,2.53
2022-10-01T23:43:05.452Z,2.50
2022-10-01T23:45:39.412Z,2.90
2022-10-01T23:48:14.444Z,2.60
2022-10-01T23:50:52.582Z,3.00
2022-10-01T23:53:22.581Z,2.77
2022-10-01T23:56:28.249Z,2.73
2022-10-01T23:58:58.116Z,2.93
